createdAt,value
2022-08-16T00:00:04.277Z,75551.50
2022-08-16T00:02:33.450Z,75555.47
2022-08-16T00:05:01.112Z,75555.47
2022-08-16T00:07:29.750Z,75551.50
2022-08-16T00:09:58.736Z,75551.50
2022-08-16T00:12:28.177Z,75533.59
2022-08-16T00:14:56.523Z,75547.50
2022-08-16T00:17:24.657Z,75559.44
2022-08-16T00:19:53.372Z,75565.41
2022-08-16T00:22:24.696Z,75571.34
2022-08-16T00:24:53.550Z,75571.34
2022-08-16T00:27:21.571Z,75583.28
2022-08-16T00:29:48.198Z,75581.28
2022-08-16T00:32:35.154Z,75581.28
2022-08-16T00:35:01.901Z,75589.22
2022-08-16T00:37:56.980Z,75587.25
2022-08-16T00:40:34.841Z,75603.13
2022-08-16T00:43:12.316Z,75591.22
2022-08-16T00:45:58.043Z,75605.13
2022-08-16T00:48:30.586Z,75609.09
2022-08-16T00:51:00.160Z,75607.13
2022-08-16T00:53:27.251Z,75605.13
2022-08-16T00:56:00.679Z,75609.09
2022-08-16T00:58:35.042Z,75597.19
2022-08-16T01:01:03.165Z,75609.09
2022-08-16T01:03:36.165Z,75611.09
2022-08-16T01:06:40.220Z,75609.09
2022-08-16T01:08:56.628Z,75579.31
2022-08-16T01:11:27.950Z,75589.22
2022-08-16T01:14:13.630Z,75607.13
2022-08-16T01:16:43.121Z,75603.13
2022-08-16T01:19:36.941Z,75595.19
2022-08-16T01:22:46.807Z,75607.13
2022-08-16T01:25:21.634Z,75617.03
2022-08-16T01:27:52.684Z,75632.94
2022-08-16T01:30:29.467Z,75644.84
2022-08-16T01:33:02.316Z,75640.88
2022-08-16T01:35:36.247Z,75632.94
2022-08-16T01:38:19.413Z,75646.84
2022-08-16T01:40:47.116Z,75621.03
2022-08-16T01:43:14.328Z,75632.94
2022-08-16T01:45:43.481Z,75640.88
2022-08-16T01:48:19.094Z,75644.84
2022-08-16T01:51:09.299Z,75666.72
2022-08-16T01:53:40.642Z,75664.72
2022-08-16T01:56:08.152Z,75652.81
2022-08-16T01:58:51.509Z,75668.69
2022-08-16T02:01:18.453Z,75660.75
2022-08-16T02:03:45.007Z,75668.69
2022-08-16T02:06:33.768Z,75664.72
2022-08-16T02:09:05.180Z,75682.59
2022-08-16T02:11:47.930Z,75686.56
2022-08-16T02:14:21.732Z,75658.75
2022-08-16T02:16:49.263Z,75644.84
2022-08-16T02:19:18.519Z,75644.84
2022-08-16T02:22:09.078Z,75664.72
2022-08-16T02:24:40.814Z,75680.63
2022-08-16T02:27:08.335Z,75676.66
2022-08-16T02:29:35.050Z,75708.44
2022-08-16T02:32:03.881Z,75712.41
2022-08-16T02:34:50.184Z,75694.53
2022-08-16T02:37:20.881Z,75718.38
2022-08-16T02:39:47.726Z,75704.47
2022-08-16T02:42:20.943Z,75706.44
2022-08-16T02:44:48.975Z,75724.31
2022-08-16T02:47:24.879Z,75732.28
2022-08-16T02:49:58.962Z,75734.25
2022-08-16T02:52:39.321Z,75744.19
2022-08-16T02:55:11.561Z,75744.19
2022-08-16T02:57:54.310Z,75738.22
2022-08-16T03:00:33.837Z,75712.41
2022-08-16T03:03:01.800Z,75720.34
2022-08-16T03:05:31.753Z,75708.44
2022-08-16T03:08:00.059Z,75716.38
2022-08-16T03:10:33.556Z,75696.50
2022-08-16T03:13:00.818Z,75692.53
2022-08-16T03:15:28.500Z,75666.72
2022-08-16T03:17:56.516Z,75682.59
2022-08-16T03:20:32.278Z,75690.56
2022-08-16T03:22:59.769Z,75702.47
2022-08-16T03:25:40.907Z,75720.34
2022-08-16T03:28:11.703Z,75722.34
2022-08-16T03:30:38.578Z,75728.31
2022-08-16T03:33:05.855Z,75734.25
2022-08-16T03:35:40.139Z,75734.25
2022-08-16T03:38:32.787Z,75756.13
2022-08-16T03:40:57.335Z,75758.09
2022-08-16T03:43:24.646Z,75768.03
2022-08-16T03:46:11.180Z,75740.22
2022-08-16T03:48:40.400Z,75738.22
2022-08-16T03:51:12.267Z,75748.16
2022-08-16T03:53:39.582Z,75756.13
2022-08-16T03:56:07.764Z,75768.03
2022-08-16T03:58:45.551Z,75756.13
2022-08-16T04:01:14.960Z,75756.13
2022-08-16T04:03:42.720Z,75772.00
2022-08-16T04:06:10.912Z,75781.94
2022-08-16T04:08:39.551Z,75770.03
2022-08-16T04:11:06.589Z,75738.22
2022-08-16T04:14:00.532Z,75754.13
2022-08-16T04:16:27.545Z,75760.09
2022-08-16T04:19:02.726Z,75777.97
2022-08-16T04:21:33.461Z,75777.97
2022-08-16T04:24:01.535Z,75789.88
2022-08-16T04:26:30.892Z,75756.13
2022-08-16T04:29:16.761Z,75738.22
2022-08-16T04:31:55.799Z,75728.31
2022-08-16T04:34:25.015Z,75732.28
2022-08-16T04:36:53.647Z,75708.44
2022-08-16T04:39:23.869Z,75718.38
2022-08-16T04:41:56.683Z,75750.16
2022-08-16T04:44:33.129Z,75764.06
2022-08-16T04:47:23.878Z,75742.19
2022-08-16T04:49:52.264Z,75756.13
2022-08-16T04:52:33.200Z,75750.16
2022-08-16T04:55:03.828Z,75752.13
2022-08-16T04:57:30.500Z,75756.13
2022-08-16T04:59:57.376Z,75746.19
2022-08-16T05:02:42.215Z,75726.31
2022-08-16T05:05:17.196Z,75740.22
2022-08-16T05:07:58.228Z,75738.22
2022-08-16T05:10:28.443Z,75732.28
2022-08-16T05:12:57.419Z,75708.44
2022-08-16T05:15:24.552Z,75694.53
2022-08-16T05:17:58.673Z,75694.53
2022-08-16T05:20:39.326Z,75696.50
2022-08-16T05:23:14.917Z,75696.50
2022-08-16T05:25:48.296Z,75690.56
2022-08-16T05:28:16.511Z,75680.63
2022-08-16T05:30:43.749Z,75678.63
2022-08-16T05:33:16.691Z,75668.69
2022-08-16T05:35:55.181Z,75660.75
2022-08-16T05:38:32.305Z,75652.81
2022-08-16T05:41:06.722Z,75644.84
2022-08-16T05:43:43.454Z,75640.88
2022-08-16T05:46:29.028Z,75626.97
2022-08-16T05:49:01.695Z,75621.03
2022-08-16T05:51:39.104Z,75625.00
2022-08-16T05:54:08.171Z,75619.03
2022-08-16T05:56:37.710Z,75621.03
2022-08-16T05:59:06.411Z,75619.03
2022-08-16T06:01:38.330Z,75605.13
2022-08-16T06:04:13.549Z,75609.09
2022-08-16T06:06:56.857Z,75601.16
2022-08-16T06:09:25.905Z,75605.13
2022-08-16T06:12:10.770Z,75585.25
2022-08-16T06:14:37.721Z,75567.38
2022-08-16T06:17:07.300Z,75577.31
2022-08-16T06:19:35.809Z,75577.31
2022-08-16T06:22:02.567Z,75553.47
2022-08-16T06:24:54.127Z,75551.50
2022-08-16T06:32:55.245Z,75523.69
2022-08-16T06:35:28.244Z,75515.72
2022-08-16T06:38:32.039Z,75515.72
2022-08-16T06:40:59.028Z,75493.88
2022-08-16T06:43:43.376Z,75491.88
2022-08-16T06:46:34.627Z,75479.97
2022-08-16T06:49:11.768Z,75466.06
2022-08-16T06:51:46.448Z,75458.13
2022-08-16T06:54:19.209Z,75462.09
2022-08-16T06:56:46.245Z,75460.09
2022-08-16T06:59:25.661Z,75450.16
2022-08-16T07:01:55.178Z,75462.09
2022-08-16T07:04:32.377Z,75446.19
2022-08-16T07:07:36.322Z,75442.22
2022-08-16T07:13:58.460Z,75398.53
2022-08-16T07:16:27.994Z,75402.50
2022-08-16T07:19:01.580Z,75396.53
2022-08-16T07:21:42.240Z,75390.56
2022-08-16T07:24:29.564Z,75378.66
2022-08-16T07:26:58.421Z,75378.66
2022-08-16T07:29:27.451Z,75386.59
2022-08-16T07:32:00.566Z,75370.72
2022-08-16T07:34:35.526Z,75358.78
2022-08-16T07:37:08.445Z,75332.97
2022-08-16T07:39:43.293Z,75309.13
2022-08-16T07:42:26.019Z,75299.19
2022-08-16T07:44:58.091Z,75267.41
2022-08-16T07:47:31.556Z,75265.44
2022-08-16T07:50:00.167Z,75239.59
2022-08-16T07:52:38.847Z,75227.69
2022-08-16T07:55:06.916Z,75201.88
2022-08-16T07:58:01.105Z,75166.09
2022-08-16T08:00:30.882Z,75162.13
2022-08-16T08:02:57.495Z,75150.22
2022-08-16T08:05:35.312Z,75140.28
2022-08-16T08:08:11.972Z,75138.31
2022-08-16T08:10:56.213Z,75130.34
2022-08-16T08:13:42.521Z,75128.38
2022-08-16T08:16:16.897Z,75128.38
2022-08-16T08:18:50.206Z,75116.44
2022-08-16T08:21:19.441Z,75094.59
2022-08-16T08:23:57.782Z,75100.56
2022-08-16T08:26:25.577Z,75102.53
2022-08-16T08:28:54.931Z,75092.63
2022-08-16T08:31:28.318Z,75058.84
2022-08-16T08:33:59.335Z,75068.78
2022-08-16T08:36:33.167Z,75031.03
2022-08-16T08:38:59.996Z,75025.09
2022-08-16T08:41:34.847Z,75011.19
2022-08-16T08:44:28.563Z,74991.31
2022-08-16T08:47:01.591Z,74993.31
2022-08-16T08:49:50.325Z,74999.25
2022-08-16T08:52:35.273Z,74981.38
2022-08-16T08:55:14.276Z,74959.53
2022-08-16T08:57:47.577Z,74977.41
2022-08-16T09:00:21.186Z,74975.44
2022-08-16T09:02:52.249Z,74981.38
2022-08-16T09:05:35.884Z,74963.50
2022-08-16T09:08:15.709Z,74959.53
2022-08-16T09:10:44.636Z,74939.66
2022-08-16T09:13:11.920Z,74909.88
2022-08-16T09:15:39.824Z,74886.03
2022-08-16T09:18:24.856Z,74862.22
2022-08-16T09:20:59.269Z,74844.34
2022-08-16T09:23:36.715Z,74844.34
2022-08-16T09:26:45.001Z,74874.13
2022-08-16T09:29:15.551Z,74880.09
2022-08-16T09:31:40.961Z,74882.06
2022-08-16T09:34:08.368Z,74882.06
2022-08-16T09:36:36.048Z,74856.25
2022-08-16T09:39:03.813Z,74822.50
2022-08-16T09:41:31.801Z,74796.66
2022-08-16T09:45:09.467Z,74762.91
2022-08-16T09:46:49.969Z,74737.09
2022-08-16T09:49:19.866Z,74719.22
2022-08-16T09:51:48.390Z,74715.25
2022-08-16T09:54:20.900Z,74721.19
2022-08-16T09:56:53.206Z,74707.28
2022-08-16T09:59:23.486Z,74683.47
2022-08-16T10:01:51.591Z,74667.56
2022-08-16T10:04:30.885Z,74683.47
2022-08-16T10:07:14.962Z,74673.53
2022-08-16T10:09:53.634Z,74677.50
2022-08-16T10:12:43.220Z,74667.56
2022-08-16T10:15:15.408Z,74651.69
2022-08-16T10:17:59.977Z,74645.72
2022-08-16T10:20:34.150Z,74677.50
2022-08-16T10:23:07.462Z,74691.41
2022-08-16T10:27:21.946Z,74657.63
2022-08-16T10:28:30.043Z,74647.72
2022-08-16T10:31:00.711Z,74608.00
2022-08-16T10:33:33.237Z,74584.16
2022-08-16T10:36:04.452Z,74572.25
2022-08-16T10:38:36.834Z,74552.38
2022-08-16T10:41:07.105Z,74538.47
2022-08-16T10:43:38.249Z,74528.56
2022-08-16T10:46:39.768Z,74524.56
2022-08-16T10:48:55.145Z,74512.66
2022-08-16T10:51:34.659Z,74498.75
2022-08-16T10:54:28.483Z,74542.44
2022-08-16T10:56:57.089Z,74556.34
2022-08-16T10:59:39.272Z,74564.28
2022-08-16T11:02:59.478Z,74590.13
2022-08-16T11:05:14.392Z,74570.25
2022-08-16T11:07:52.186Z,74570.25
2022-08-16T11:19:04.742Z,74532.53
2022-08-16T11:22:11.187Z,74538.47
2022-08-16T11:24:39.614Z,74536.50
2022-08-16T11:27:35.694Z,74512.66
2022-08-16T11:29:56.678Z,74504.72
2022-08-16T11:32:31.352Z,74488.81
2022-08-16T11:35:10.762Z,74530.53
2022-08-16T11:40:33.994Z,74516.63
2022-08-16T11:43:04.599Z,74470.94
2022-08-16T11:45:33.818Z,74480.88
2022-08-16T11:48:04.174Z,74498.75
2022-08-16T11:50:36.111Z,74498.75
2022-08-16T11:53:05.431Z,74504.72
2022-08-16T11:55:38.181Z,74478.91
2022-08-16T11:58:14.789Z,74480.88
2022-08-16T12:00:51.696Z,74472.94
2022-08-16T12:03:34.235Z,74468.97
2022-08-16T12:06:25.515Z,74466.97
2022-08-16T12:09:01.113Z,74449.09
2022-08-16T12:11:31.607Z,74447.13
2022-08-16T12:14:04.540Z,74439.19
2022-08-16T12:16:34.303Z,74419.31
2022-08-16T12:19:03.057Z,74375.63
2022-08-16T12:21:58.932Z,74361.72
2022-08-16T12:24:22.303Z,74337.91
2022-08-16T12:26:50.594Z,74324.00
2022-08-16T12:29:17.140Z,74327.97
2022-08-16T12:32:01.629Z,74325.97
2022-08-16T12:34:30.329Z,74318.03
2022-08-16T12:36:57.049Z,74314.06
2022-08-16T12:39:29.098Z,74312.09
2022-08-16T12:41:56.681Z,74308.09
2022-08-16T12:44:26.022Z,74304.13
2022-08-16T12:47:11.600Z,74298.19
2022-08-16T12:49:41.920Z,74310.09
2022-08-16T12:52:09.304Z,74341.88
2022-08-16T12:54:57.973Z,74351.81
2022-08-16T12:57:25.640Z,74337.91
2022-08-16T13:00:06.736Z,74333.94
2022-08-16T13:02:36.622Z,74353.78
2022-08-16T13:05:04.437Z,74349.81
2022-08-16T13:07:37.587Z,74353.78
2022-08-16T13:10:21.242Z,74357.75
2022-08-16T13:13:01.572Z,74369.66
2022-08-16T13:15:28.932Z,74383.56
2022-08-16T13:17:57.939Z,74399.47
2022-08-16T13:20:28.955Z,74381.59
2022-08-16T13:23:09.142Z,74357.75
2022-08-16T13:25:39.932Z,74347.81
2022-08-16T13:28:07.030Z,74371.66
2022-08-16T13:30:43.276Z,74369.66
2022-08-16T13:33:17.550Z,74329.94
2022-08-16T13:35:56.098Z,74310.09
2022-08-16T13:38:25.776Z,74292.22
2022-08-16T13:40:56.995Z,74272.38
2022-08-16T13:43:27.270Z,74250.53
2022-08-16T13:45:56.043Z,74244.56
2022-08-16T13:48:25.159Z,74256.47
2022-08-16T13:50:54.663Z,74268.41
2022-08-16T13:53:24.109Z,74292.22
2022-08-16T13:55:58.615Z,74339.88
2022-08-16T13:58:36.757Z,74363.72
2022-08-16T14:01:09.936Z,74365.69
2022-08-16T14:03:38.786Z,74351.81
2022-08-16T14:06:10.837Z,74337.91
2022-08-16T14:08:42.186Z,74325.97
2022-08-16T14:11:12.110Z,74329.94
2022-08-16T14:13:39.690Z,74337.91
2022-08-16T14:16:23.616Z,74335.91
2022-08-16T14:18:53.045Z,74312.09
2022-08-16T14:21:22.090Z,74274.34
2022-08-16T14:23:52.318Z,74246.56
2022-08-16T14:26:21.059Z,74220.72
2022-08-16T14:28:50.460Z,74212.78
2022-08-16T14:31:17.836Z,74224.72
2022-08-16T14:33:45.075Z,74214.78
2022-08-16T14:36:11.910Z,74200.88
2022-08-16T14:38:45.715Z,74212.78
2022-08-16T14:41:14.213Z,74198.88
2022-08-16T14:43:40.920Z,74173.06
2022-08-16T14:46:07.814Z,74169.09
2022-08-16T14:48:34.727Z,74157.19
2022-08-16T14:51:01.642Z,74147.25
2022-08-16T14:53:31.334Z,74123.44
2022-08-16T14:55:59.927Z,74131.38
2022-08-16T14:58:34.498Z,74121.44
2022-08-16T15:01:04.784Z,74087.69
2022-08-16T15:03:33.214Z,74075.78
2022-08-16T15:06:04.674Z,74010.25
2022-08-16T15:08:35.109Z,73992.38
2022-08-16T15:11:05.982Z,73893.09
2022-08-16T15:13:34.657Z,73912.94
2022-08-16T15:16:03.704Z,73845.44
2022-08-16T15:18:32.345Z,73831.53
2022-08-16T15:21:01.846Z,73730.28
2022-08-16T15:23:33.922Z,73736.22
2022-08-16T15:26:02.760Z,73750.13
2022-08-16T15:28:32.689Z,73746.16
2022-08-16T15:31:04.703Z,73863.31
2022-08-16T15:33:43.349Z,73783.88
2022-08-16T15:36:17.476Z,73819.63
2022-08-16T15:39:02.213Z,73775.94
2022-08-16T15:41:42.788Z,73936.78
2022-08-16T15:44:12.822Z,74095.63
2022-08-16T15:46:55.337Z,74159.16
2022-08-16T15:49:37.311Z,74244.56
2022-08-16T15:52:11.237Z,74310.09
2022-08-16T15:54:52.711Z,74320.03
2022-08-16T15:57:20.953Z,74065.84
2022-08-16T15:59:52.757Z,73833.53
2022-08-16T16:02:29.417Z,73787.84
2022-08-16T16:05:01.798Z,73930.81
2022-08-16T16:07:30.996Z,74018.19
2022-08-16T16:09:59.616Z,74105.56
2022-08-16T16:12:52.911Z,74190.94
2022-08-16T16:15:22.588Z,74238.59
2022-08-16T16:17:50.839Z,74260.44
2022-08-16T16:20:18.610Z,74292.22
2022-08-16T16:22:46.486Z,74325.97
2022-08-16T16:25:16.045Z,74349.81
2022-08-16T16:27:43.551Z,74369.66
2022-08-16T16:30:37.578Z,74393.50
2022-08-16T16:32:58.547Z,74391.53
2022-08-16T16:35:32.722Z,74397.47
2022-08-16T16:38:00.250Z,74401.44
2022-08-16T16:40:32.537Z,74417.34
2022-08-16T16:43:00.302Z,74425.28
2022-08-16T16:45:34.658Z,74439.19
2022-08-16T16:48:11.983Z,74449.09
2022-08-16T16:50:44.714Z,74461.03
2022-08-16T16:53:17.076Z,74457.06
2022-08-16T16:55:51.563Z,74472.94
2022-08-16T16:58:38.867Z,74496.78
2022-08-16T17:01:08.203Z,74504.72
2022-08-16T17:03:35.585Z,74520.59
2022-08-16T17:06:10.292Z,74544.44
2022-08-16T17:08:41.375Z,74562.31
2022-08-16T17:11:12.366Z,74568.28
2022-08-16T17:13:40.223Z,74586.16
2022-08-16T17:16:08.696Z,74590.13
2022-08-16T17:19:17.632Z,74615.94
2022-08-16T17:21:36.926Z,74623.88
2022-08-16T17:24:17.415Z,74639.75
2022-08-16T17:26:48.960Z,74645.72
2022-08-16T17:29:15.866Z,74659.63
2022-08-16T17:31:43.554Z,74671.53
2022-08-16T17:34:29.570Z,74679.47
2022-08-16T17:36:58.706Z,74689.41
2022-08-16T17:39:29.306Z,74711.25
2022-08-16T17:41:57.232Z,74727.16
2022-08-16T17:44:23.984Z,74741.06
2022-08-16T17:46:52.404Z,74758.94
2022-08-16T17:49:19.580Z,74758.94
2022-08-16T17:51:46.275Z,74768.88
2022-08-16T17:54:20.240Z,74780.78
2022-08-16T17:57:01.417Z,74786.75
2022-08-16T17:59:29.014Z,74812.56
2022-08-16T18:01:56.459Z,74832.41
2022-08-16T18:04:48.399Z,74854.25
2022-08-16T18:07:10.331Z,74868.16
2022-08-16T18:09:40.667Z,74884.06
2022-08-16T18:12:20.503Z,74895.97
2022-08-16T18:15:09.035Z,74909.88
2022-08-16T18:17:35.976Z,74929.75
2022-08-16T18:20:02.938Z,74939.66
2022-08-16T18:22:32.365Z,74949.59
2022-08-16T18:24:59.037Z,74965.50
2022-08-16T18:27:27.483Z,74977.41
2022-08-16T18:29:54.421Z,74993.31
2022-08-16T18:32:24.439Z,75013.16
2022-08-16T18:34:51.485Z,75027.06
2022-08-16T18:37:18.078Z,75054.88
2022-08-16T18:39:44.765Z,75066.78
2022-08-16T18:42:13.887Z,75084.66
2022-08-16T18:44:43.874Z,75098.56
2022-08-16T18:47:10.863Z,75112.47
2022-08-16T18:49:37.746Z,75120.44
2022-08-16T18:52:05.197Z,75120.44
2022-08-16T18:54:33.495Z,75124.41
2022-08-16T18:57:02.417Z,75138.31
2022-08-16T18:59:33.241Z,75144.25
2022-08-16T19:02:05.185Z,75158.16
2022-08-16T19:04:55.075Z,75180.00
2022-08-16T19:07:31.222Z,75189.94
2022-08-16T19:10:02.079Z,75203.84
2022-08-16T19:12:37.886Z,75209.81
2022-08-16T19:15:15.936Z,75221.72
2022-08-16T19:17:43.765Z,75233.66
2022-08-16T19:20:11.518Z,75239.59
2022-08-16T19:23:02.073Z,75255.50
2022-08-16T19:25:39.467Z,75259.47
2022-08-16T19:28:33.340Z,75271.38
2022-08-16T19:31:03.313Z,75281.31
2022-08-16T19:33:37.026Z,75283.31
2022-08-16T19:36:04.316Z,75291.25
2022-08-16T19:38:31.285Z,75301.19
2022-08-16T19:40:57.820Z,75307.16
2022-08-16T19:43:24.412Z,75319.06
2022-08-16T19:45:53.093Z,75327.00
2022-08-16T19:48:20.439Z,75329.00
2022-08-16T19:50:46.988Z,75342.91
2022-08-16T19:53:19.221Z,75346.88
2022-08-16T19:55:47.618Z,75348.88
2022-08-16T19:58:16.880Z,75362.75
2022-08-16T20:00:45.671Z,75368.72
2022-08-16T20:03:18.218Z,75362.75
2022-08-16T20:05:45.151Z,75362.75
2022-08-16T20:08:11.875Z,75366.75
2022-08-16T20:10:40.788Z,75378.66
2022-08-16T20:13:17.503Z,75380.66
2022-08-16T20:16:39.394Z,75386.59
2022-08-16T20:19:06.837Z,75402.50
2022-08-16T20:21:33.440Z,75408.47
2022-08-16T20:24:22.609Z,75416.41
2022-08-16T20:26:46.460Z,75420.38
2022-08-16T20:29:13.148Z,75426.34
2022-08-16T20:31:39.756Z,75422.34
2022-08-16T20:34:08.851Z,75422.34
2022-08-16T20:36:35.710Z,75426.34
2022-08-16T20:39:04.728Z,75426.34
2022-08-16T20:41:31.727Z,75424.34
2022-08-16T20:43:58.272Z,75426.34
2022-08-16T20:46:26.179Z,75424.34
2022-08-16T20:48:52.997Z,75424.34
2022-08-16T20:51:19.577Z,75420.38
2022-08-16T20:53:46.127Z,75426.34
2022-08-16T20:56:12.801Z,75440.25
2022-08-16T20:58:39.674Z,75428.31
2022-08-16T21:01:07.263Z,75424.34
2022-08-16T21:03:34.026Z,75428.31
2022-08-16T21:06:02.239Z,75426.34
2022-08-16T21:08:53.604Z,75430.31
2022-08-16T21:11:16.424Z,75436.28
2022-08-16T21:13:43.347Z,75436.28
2022-08-16T21:16:10.206Z,75440.25
2022-08-16T21:18:36.676Z,75440.25
2022-08-16T21:21:03.295Z,75450.16
2022-08-16T21:23:30.131Z,75458.13
2022-08-16T21:25:58.510Z,75464.06
2022-08-16T21:28:39.381Z,75468.06
2022-08-16T21:31:09.348Z,75470.03
2022-08-16T21:33:35.965Z,75477.97
2022-08-16T21:36:02.613Z,75485.94
2022-08-16T21:38:30.770Z,75499.84
2022-08-16T21:40:59.405Z,75501.81
2022-08-16T21:43:32.069Z,75503.81
2022-08-16T21:46:01.072Z,75515.72
2022-08-16T21:48:33.486Z,75519.69
2022-08-16T21:51:00.830Z,75515.72
2022-08-16T21:53:28.427Z,75517.72
2022-08-16T21:55:57.878Z,75529.63
2022-08-16T21:58:25.568Z,75533.59
2022-08-16T22:00:53.224Z,75545.53
2022-08-16T22:03:21.155Z,75557.44
2022-08-16T22:05:59.926Z,75559.44
2022-08-16T22:08:39.447Z,75561.41
2022-08-16T22:11:14.326Z,75571.34
2022-08-16T22:13:40.840Z,75571.34
2022-08-16T22:16:08.761Z,75575.31
2022-08-16T22:18:35.483Z,75581.28
2022-08-16T22:21:02.021Z,75579.31
2022-08-16T22:23:28.633Z,75587.25
2022-08-16T22:25:56.383Z,75591.22
2022-08-16T22:28:23.659Z,75601.16
2022-08-16T22:30:50.744Z,75613.06
2022-08-16T22:33:21.825Z,75617.03
2022-08-16T22:35:53.601Z,75626.97
2022-08-16T22:38:54.813Z,75636.91
2022-08-16T22:41:07.332Z,75640.88
2022-08-16T22:43:33.960Z,75638.91
2022-08-16T22:46:00.699Z,75640.88
2022-08-16T22:48:27.463Z,75640.88
2022-08-16T22:50:54.101Z,75638.91
2022-08-16T22:53:20.706Z,75648.84
2022-08-16T22:55:47.571Z,75644.84
2022-08-16T22:58:14.161Z,75646.84
2022-08-16T23:00:41.411Z,75656.78
2022-08-16T23:03:12.431Z,75660.75
2022-08-16T23:05:44.400Z,75674.66
2022-08-16T23:08:16.360Z,75680.63
2022-08-16T23:11:03.168Z,75676.66
2022-08-16T23:13:30.144Z,75674.66
2022-08-16T23:16:11.346Z,75682.59
2022-08-16T23:18:39.291Z,75696.50
2022-08-16T23:21:09.540Z,75700.47
2022-08-16T23:23:37.483Z,75704.47
2022-08-16T23:26:43.755Z,75708.44
2022-08-16T23:28:51.868Z,75712.41
2022-08-16T23:31:18.820Z,75716.38
2022-08-16T23:33:45.967Z,75724.31
2022-08-16T23:36:12.625Z,75710.41
2022-08-16T23:38:39.850Z,75712.41
2022-08-16T23:41:11.870Z,75714.41
2022-08-16T23:43:41.941Z,75716.38
2022-08-16T23:46:13.922Z,75730.28
2022-08-16T23:50:00.744Z,75746.19
2022-08-16T23:51:28.965Z,75754.13
2022-08-16T23:53:56.053Z,75758.09
2022-08-16T23:56:22.685Z,75758.09
2022-08-16T23:58:54.449Z,75764.06
